• Join FlightAware (Why Join?)
  • Login
  • US Flag 
06:50AM EDT


 

Airport Tracker/Info


-or-


 

Live Flight TrackerFlight Track Log ✈ UAL758 ✈ 16-Jul-2013 ✈ KORD - KTPA

Flight Track Log - Related Links

Times and Time Zones

All times are in EDT time to prevent confusion due to time zone crossing. See the UAL758 flight status page for this flight to view local times or setup timezone preferences in your user account.

Time Position Orientation Groundspeed Altitude Reporting Facility
EDT Latitude Longitude Course Direction KTS MPH feet Rate Location/Type
12:40PM 41.9372 -87.9042 176° South 151 174 2,100  Level Chicago Center
12:41PM 41.8950 -87.9000 176° South 150 173 3,900 1,320 Climbing Chicago Center
12:42PM 41.8331 -87.8808 167° South 206 237 4,900 2,040 Climbing Chicago Center
12:43PM 41.7589 -87.8514 164° South 271 312 8,200 2,880 Climbing Chicago Center
12:44PM 41.6822 -87.8239 165° South 283 326 10,900 2,520 Climbing Chicago Center
12:45PM 41.6014 -87.7922 164° South 300 345 13,500 1,800 Climbing Chicago Center
12:46PM 41.4914 -87.7519 165° South 343 395 14,700 1,500 Climbing Chicago Center
12:47PM 41.3892 -87.7225 168° South 371 427 16,700 1,620 Climbing Chicago Center
12:48PM 41.2822 -87.7258 181° South 379 436 18,100 1,500 Climbing Chicago Center
12:49PM 41.1731 -87.7228 179° South 387 445 19,900 1,440 Climbing Chicago Center
12:50PM 41.0603 -87.7050 173° South 402 463 21,100 1,380 Climbing Chicago Center
12:51PM 40.9450 -87.6842 172° South 416 479 22,800 1,680 Climbing Chicago Center
12:52PM 40.8075 -87.6533 170° South 420 483 24,600 1,440 Climbing Chicago Center
12:53PM 40.6906 -87.6250 170° South 427 491 25,800 1,260 Climbing Chicago Center
12:54PM 40.5708 -87.6000 171° South 436 502 27,300 1,260 Climbing Chicago Center
12:55PM 40.4503 -87.5725 170° South 441 507 28,500 960 Climbing Chicago Center
12:56PM 40.3278 -87.5467 171° South 447 514 29,400 960 Climbing Chicago Center
12:57PM 40.1767 -87.5125 170° South 459 528 30,500 1,200 Climbing Chicago Center
12:58PM 40.0933 -87.4964 172° South 461 531 31,500 1,440 Climbing Indianapolis Center
12:59PM 39.9686 -87.4850 176° South 454 522 33,000 1,140 Climbing Indianapolis Center
01:00PM 39.8444 -87.4861 180° South 450 518 33,900 900 Climbing Indianapolis Center
01:01PM 39.7197 -87.4883 181° South 450 518 34,900 480 Climbing Indianapolis Center
01:02PM 39.5953 -87.4933 182° South 450 518 35,000  Climbing Indianapolis Center
01:03PM 39.4753 -87.4739 173° South 444 511 35,000  Level Indianapolis Center
01:04PM 39.3322 -87.4392 169° South 439 505 35,000  Level Indianapolis Center
01:05PM 39.2114 -87.4089 169° South 443 510 35,000  Level Indianapolis Center
01:06PM 39.0919 -87.3797 169° South 439 505 35,000  Level Indianapolis Center
01:07PM 38.9722 -87.3511 169° South 439 505 35,000  Level Indianapolis Center
01:08PM 38.8514 -87.3208 169° South 443 510 35,000  Level Indianapolis Center
01:09PM 38.7081 -87.2858 169° South 441 507 35,000  Level Indianapolis Center
01:11PM 38.5869 -87.2567 169° South 445 512 35,000  Level Indianapolis Center
01:12PM 38.4656 -87.2269 169° South 445 512 35,000  Level Indianapolis Center
01:13PM 38.3442 -87.1983 170° South 445 512 35,000  Level Indianapolis Center
01:14PM 38.2242 -87.1697 169° South 441 507 35,000  Level Indianapolis Center
01:15PM 38.1028 -87.1411 169° South 443 510 35,000  Level Indianapolis Center
01:16PM 37.9625 -87.1108 170° South 445 512 35,000  Level Indianapolis Center
01:17PM 37.8394 -87.0806 169° South 446 513 35,000  Level Indianapolis Center
01:18PM 37.7156 -87.0533 170° South 446 513 35,000  Level Indianapolis Center
01:19PM 37.5947 -87.0208 168° South 442 509 35,000  Level Indianapolis Center
01:20PM 37.4711 -86.9928 170° South 445 512 35,000  Level Indianapolis Center
01:21PM 37.3283 -86.9592 169° South 445 512 35,000  Level Indianapolis Center
01:22PM 37.2069 -86.9300 169° South 443 510 35,000  Level Indianapolis Center
01:23PM 37.0853 -86.9028 170° South 442 509 35,000  Level Indianapolis Center
01:24PM 36.9653 -86.8750 170° South 436 502 35,000  Level Indianapolis Center
01:25PM 36.8453 -86.8475 170° South 434 499 35,000  Level Indianapolis Center
01:26PM 36.7247 -86.8183 169° South 436 502 35,000  Level Indianapolis Center
01:27PM 36.6039 -86.7903 169° South 436 502 35,000  Level Indianapolis Center
01:28PM 36.4836 -86.7606 169° South 434 499 35,000  Level Indianapolis Center
01:29PM 36.3564 -86.7325 170° South 449 517 35,000  Level Indianapolis Center
01:30PM 36.2317 -86.7056 170° South 442 509 35,000  Level Indianapolis Center
01:31PM 36.1058 -86.6706 167° South 444 511 35,000  Level Memphis Center
01:32PM 35.9978 -86.6164 158° South 433 498 35,000  Level Memphis Center
01:33PM 35.8836 -86.5600 158° South 431 496 35,000  Level Memphis Center
01:34PM 35.7733 -86.5064 158° South 431 496 35,000  Level Memphis Center
01:36PM 35.5436 -86.3919 158° South 436 502 35,000  Level Atlanta Center
01:37PM 35.4297 -86.3378 159° South 436 502 35,000  Level Atlanta Center
01:38PM 35.3181 -86.2839 159° South 436 502 35,000  Level Atlanta Center
01:39PM 35.2064 -86.2300 158° South 436 502 35,000  Level Atlanta Center
01:40PM 35.0989 -86.1711 156° South 429 494 35,000  Level Atlanta Center
01:41PM 34.9850 -86.1228 161° South 429 494 35,000  Level Atlanta Center
01:42PM 34.8733 -86.0617 156° South 436 502 35,000  Level Atlanta Center
01:43PM 34.7594 -86.0058 158° South 436 502 35,000  Level Atlanta Center
01:44PM 34.6456 -85.9525 159° South 436 502 35,000  Level Atlanta Center
01:45PM 34.5294 -85.8969 158° South 441 507 35,000  Level Atlanta Center
01:46PM 34.4156 -85.8417 158° South 441 507 35,000  Level Atlanta Center
01:47PM 34.3014 -85.7939 161° South 446 513 35,000  Level Atlanta Center
01:48PM 34.1894 -85.7414 159° South 446 513 35,000  Level Atlanta Center
01:49PM 34.0733 -85.6864 159° South 446 513 35,000  Level Atlanta Center
01:50PM 33.9592 -85.6317 158° South 451 519 35,000  Level Atlanta Center
01:51PM 33.8453 -85.5794 159° South 446 513 35,000  Level Atlanta Center
01:52PM 33.7311 -85.5250 158° South 446 513 35,000  Level Atlanta Center
01:53PM 33.6147 -85.4731 160° South 446 513 35,000  Level Atlanta Center
01:54PM 33.5006 -85.4189 158° South 446 513 35,000  Level Atlanta Center
01:55PM 33.3822 -85.3647 159° South 454 522 35,000  Level Atlanta Center
01:56PM 33.2700 -85.3133 159° South 446 513 35,000  Level Atlanta Center
01:57PM 33.1453 -85.2544 158° South 446 513 35,000  Level Atlanta Center
01:58PM 33.0436 -85.2036 157° South 446 513 35,000  Level Atlanta Center
01:59PM 32.9231 -85.1575 162° South 441 507 35,000  Level Atlanta Center
02:00PM 32.7897 -85.1236 168° South 446 513 35,000  Level Atlanta Center
02:01PM 32.6836 -85.0778 160° South 454 522 35,000  Level Atlanta Center
02:02PM 32.5711 -85.0394 164° South 447 514 35,000  Level Atlanta Center
02:03PM 32.4464 -84.9989 165° South 453 521 35,000  Level Atlanta Center
02:04PM 32.3275 -84.9581 164° South 453 521 35,000  Level Atlanta Center
02:05PM 32.2089 -84.9250 167° South 448 516 35,000  Level Atlanta Center
02:06PM 32.0922 -84.8847 164° South 448 516 35,000  Level Atlanta Center
02:08PM 31.8928 -84.8331 168° South 454 522 35,000  Level Jacksonville Center
02:09PM 31.7825 -84.8183 174° South 449 517 35,000  Level Jacksonville Center
02:10PM 31.6617 -84.7939 170° South 444 511 35,000  Level Jacksonville Center
02:11PM 31.5367 -84.7694 171° South 449 517 35,000  Level Jacksonville Center
02:12PM 31.4139 -84.7450 170° South 449 517 35,000  Level Jacksonville Center
02:13PM 31.2931 -84.7208 170° South 449 517 35,000  Level Jacksonville Center
02:14PM 31.1703 -84.6989 171° South 449 517 35,000  Level Jacksonville Center
02:15PM 31.0453 -84.6747 171° South 449 517 35,000  Level Jacksonville Center
02:16PM 30.9314 -84.6217 158° South 444 511 35,000 -60 Level Jacksonville Center
02:17PM 30.8133 -84.5447 151° Southeast 444 511 34,900  Descending Jacksonville Center
02:18PM 30.7158 -84.4803 150° Southeast 444 511 35,000  Climbing Jacksonville Center
02:19PM 30.6042 -84.4083 151° Southeast 449 517 35,000  Level Jacksonville Center
02:20PM 30.4964 -84.3367 150° Southeast 454 522 35,000  Level Jacksonville Center
02:21PM 30.3886 -84.2653 150° Southeast 454 522 35,000 -60 Level Jacksonville Center
02:22PM 30.2786 -84.1914 150° Southeast 454 522 34,900 -60 Descending Jacksonville Center
02:23PM 30.1625 -84.1178 151° Southeast 446 513 34,900  Level Jacksonville Center
02:24PM 30.0608 -84.0542 152° Southeast 452 520 35,000  Climbing Jacksonville Center
02:25PM 29.9528 -83.9808 150° Southeast 457 526 35,000 -60 Level Jacksonville Center
02:26PM 29.8428 -83.9103 151° Southeast 451 519 34,900 -60 Descending Jacksonville Center
02:27PM 29.7347 -83.8422 151° Southeast 451 519 34,900 -60 Level Jacksonville Center
02:28PM 29.6247 -83.7717 151° Southeast 456 525 34,800 -780 Descending Jacksonville Center
02:29PM 29.5125 -83.6992 151° Southeast 456 525 33,400 -2,100 Descending Jacksonville Center
02:30PM 29.4000 -83.6267 151° Southeast 456 525 30,600 -2,580 Descending Jacksonville Center
02:31PM 29.2878 -83.5544 151° Southeast 456 525 28,300 -2,220 Descending Jacksonville Center
02:32PM 29.1794 -83.4847 151° Southeast 451 519 26,200 -1,860 Descending Jacksonville Center
02:33PM 29.0733 -83.4178 151° Southeast 446 513 24,600 -1,860 Descending Jacksonville Center
02:34PM 28.9650 -83.3506 151° Southeast 446 513 22,500 -1,980 Descending Jacksonville Center
02:35PM 28.8672 -83.2861 150° Southeast 434 499 20,700 -1,740 Descending Jacksonville Center
02:36PM 28.7714 -83.2267 151° Southeast 407 468 19,100 -1,500 Descending Jacksonville Center
02:37PM 28.6797 -83.1669 150° Southeast 393 452 17,700 -1,620 Descending Jacksonville Center
02:37PM 28.6167 -83.1167 145° Southeast 374 430 16,300 -1,680 Descending Tampa TRACON
02:38PM 28.5167 -83.0667 156° South 365 420 14,800 -1,320 Descending Tampa TRACON
02:39PM 28.4333 -83.0167 152° Southeast 337 388 13,700 -1,080 Descending Tampa TRACON
02:40PM 28.3667 -82.9667 147° Southeast 308 354 12,800 -1,320 Descending Tampa TRACON
02:41PM 28.3000 -82.9333 156° South 292 336 11,300 -1,500 Descending Tampa TRACON
02:42PM 28.2667 -82.8667 120° Southeast 265 305 10,000 -1,920 Descending Tampa TRACON
02:43PM 28.2833 -82.7667 79° East 259 298 7,500 -2,280 Descending Tampa TRACON
02:44PM 28.2833 -82.6833 90° East 260 299 5,300 -2,100 Descending Tampa TRACON
02:45PM 28.2500 -82.6000 114° Southeast 268 308 3,100 -1,200 Descending Tampa TRACON
02:46PM 28.2000 -82.5667 150° Southeast 261 300 3,000 -120 Descending Tampa TRACON